This is the latest recevied weather packets stored in our database for station/object N7NKE. If no packets are shown the sender has not sent any weather packets the latest 10 day(s).
| Time | Temp. | Humidity | Pressure | Rain* | Wind** | Luminosity | Snow |
|---|---|---|---|---|---|---|---|
| 1777494004 | 17.22° C | 58% | 1022.4 hPa | 0 mm | - | 900 W/m² | - |
| 1777490705 | 16.11° C | 61% | 1023 hPa | 0 mm | - | 881 W/m² | - |
| 1777489804 | 15.56° C | 61% | 1023.2 hPa | 0 mm | - | 865 W/m² | - |
| 1777488904 | 15° C | 61% | 1023.3 hPa | 0 mm | - | 849 W/m² | - |
| 1777486804 | 14.44° C | 66% | 1023.9 hPa | 0 mm | - | 798 W/m² | - |
| 1777486504 | 13.89° C | 64% | 1023.9 hPa | 0 mm | - | 793 W/m² | - |
| 1777485904 | 13.89° C | 63% | 1024 hPa | 0 mm | - | 779 W/m² | - |
| 1777485004 | 13.89° C | 65% | 1024.1 hPa | 0 mm | - | 751 W/m² | - |
| 1777482604 | 12.78° C | 65% | 1024.1 hPa | 0 mm | - | 664 W/m² | - |
| 1777481104 | 12.78° C | 64% | 1024.1 hPa | 0 mm | - | 599 W/m² | - |
| 1777476904 | 9.44° C | 76% | 1024.7 hPa | 0 mm | - | 455 W/m² | - |
| 1777476605 | 9.44° C | 77% | 1024.7 hPa | 0 mm | - | 462 W/m² | - |
| 1777473604 | 7.22° C | 84% | 1024.9 hPa | 0 mm | - | 62 W/m² | - |
| 1777467005 | 5.56° C | 87% | 1024.4 hPa | 0 mm | - | 0 W/m² | - |
| 1777462206 | 6.11° C | 84% | 1024.2 hPa | 0 mm | - | 0 W/m² | - |
| 1777460105 | 6.67° C | 81% | 1024.3 hPa | 0 mm | - | 0 W/m² | - |
| 1777458905 | 7.78° C | 77% | 1024.1 hPa | 0 mm | - | 0 W/m² | - |
| 1777458605 | 7.78° C | 76% | 1024.1 hPa | 0 mm | - | 0 W/m² | - |
| 1777456506 | 8.33° C | 75% | 1024.1 hPa | 0 mm | - | 0 W/m² | - |
| 1777455606 | 8.33° C | 74% | 1024 hPa | 0 mm | - | 0 W/m² | - |
| 1777448405 | 8.89° C | 76% | 1024.3 hPa | 0 mm | - | 0 W/m² | - |
| 1777446005 | 8.89° C | 75% | 1024.1 hPa | 0 mm | - | 0 W/m² | - |
| 1777444805 | 8.89° C | 78% | 1024.1 hPa | 0 mm | - | 0 W/m² | - |
| 1777444205 | 8.89° C | 78% | 1024.1 hPa | 0 mm | - | 0 W/m² | - |
| 1777443905 | 8.89° C | 78% | 1024 hPa | 0 mm | - | 0 W/m² | - |
* Rain latest hour (hover to see other rain measurements)
** Current wind speed in m/s (hover to see current wind gust speed)